createdAt,value
2018-08-19T00:03:10.978Z,92.20
2018-08-19T00:06:35.567Z,92.00
2018-08-19T00:10:00.339Z,92.10
2018-08-19T00:13:24.878Z,92.50
2018-08-19T00:16:49.348Z,92.50
2018-08-19T00:20:14.538Z,92.60
2018-08-19T00:23:44.333Z,92.70
2018-08-19T00:27:08.866Z,92.80
2018-08-19T00:30:33.542Z,92.80
2018-08-19T00:33:58.025Z,92.90
2018-08-19T00:37:22.495Z,93.00
2018-08-19T00:40:46.933Z,93.10
2018-08-19T00:44:11.360Z,92.80
2018-08-19T00:47:35.956Z,92.80
2018-08-19T00:51:00.448Z,92.90
2018-08-19T00:54:26.577Z,93.00
2018-08-19T00:57:54.444Z,93.10
2018-08-19T01:01:35.086Z,92.90
2018-08-19T01:04:59.460Z,92.90
2018-08-19T01:08:23.955Z,92.80
2018-08-19T01:11:48.432Z,92.60
2018-08-19T01:15:15.726Z,93.00
2018-08-19T01:18:40.338Z,93.00
2018-08-19T01:22:04.840Z,93.20
2018-08-19T01:25:29.336Z,93.40
2018-08-19T01:28:56.590Z,93.10
2018-08-19T01:32:22.330Z,93.20
2018-08-19T01:35:46.775Z,93.30
2018-08-19T01:39:12.716Z,93.50
2018-08-19T01:42:37.197Z,93.60
2018-08-19T01:46:01.597Z,93.80
2018-08-19T01:49:26.106Z,93.80
2018-08-19T01:52:51.185Z,93.70
2018-08-19T01:56:15.618Z,93.90
2018-08-19T01:59:40.050Z,93.90
2018-08-19T02:03:06.059Z,94.00
2018-08-19T02:06:30.479Z,94.20
2018-08-19T02:10:04.588Z,94.30
2018-08-19T02:13:29.039Z,94.50
2018-08-19T02:16:54.469Z,94.50
2018-08-19T02:20:19.016Z,94.40
2018-08-19T02:23:43.421Z,94.50
2018-08-19T02:27:07.887Z,94.80
2018-08-19T02:30:32.351Z,94.90
2018-08-19T02:33:56.782Z,94.90
2018-08-19T02:37:21.190Z,95.00
2018-08-19T02:40:45.622Z,95.00
2018-08-19T02:44:10.048Z,95.20
2018-08-19T02:47:35.111Z,95.50
2018-08-19T02:50:59.527Z,95.50
2018-08-19T02:54:23.960Z,95.50
2018-08-19T02:57:48.371Z,95.50
2018-08-19T03:01:13.720Z,95.50
2018-08-19T03:04:38.143Z,95.50
2018-08-19T03:08:03.866Z,95.80
2018-08-19T03:11:28.447Z,95.70
2018-08-19T03:14:53.218Z,95.80
2018-08-19T03:18:17.707Z,95.80
2018-08-19T03:21:42.162Z,96.00
2018-08-19T03:25:15.366Z,96.00
2018-08-19T03:28:39.792Z,96.10
2018-08-19T03:32:04.270Z,96.10
2018-08-19T03:35:28.727Z,96.10
2018-08-19T03:38:55.451Z,96.00
2018-08-19T03:42:19.878Z,96.00
2018-08-19T03:45:44.318Z,95.90
2018-08-19T03:49:08.764Z,96.20
2018-08-19T03:52:33.209Z,95.70
2018-08-19T03:55:57.682Z,95.50
2018-08-19T03:59:22.137Z,95.50
2018-08-19T04:02:46.606Z,95.10
2018-08-19T04:06:11.002Z,95.30
2018-08-19T04:09:35.395Z,95.40
2018-08-19T04:12:59.817Z,95.70
2018-08-19T04:16:24.233Z,95.90
2018-08-19T04:19:48.650Z,96.10
2018-08-19T04:23:13.126Z,96.10
2018-08-19T04:26:37.543Z,96.30
2018-08-19T04:30:01.990Z,96.40
2018-08-19T04:33:31.889Z,96.50
2018-08-19T04:36:56.671Z,96.50
2018-08-19T04:40:21.090Z,96.60
2018-08-19T04:43:46.186Z,96.80
2018-08-19T04:47:31.130Z,96.90
2018-08-19T04:50:56.705Z,96.60
2018-08-19T04:54:21.134Z,97.00
2018-08-19T04:57:45.557Z,96.70
2018-08-19T05:01:10.055Z,96.60
2018-08-19T05:04:34.434Z,96.50
2018-08-19T05:07:58.877Z,96.70
2018-08-19T05:11:23.303Z,96.40
2018-08-19T05:14:47.734Z,96.40
2018-08-19T05:18:12.244Z,96.40
2018-08-19T05:21:36.715Z,96.10
2018-08-19T05:25:01.167Z,96.60
2018-08-19T05:28:25.658Z,96.40
2018-08-19T05:31:55.319Z,96.20
2018-08-19T05:35:19.762Z,95.90
2018-08-19T05:38:45.735Z,95.50
2018-08-19T05:42:13.031Z,95.00
2018-08-19T05:45:41.546Z,94.70
2018-08-19T05:49:06.300Z,94.70
2018-08-19T05:52:31.568Z,94.60
2018-08-19T05:55:56.071Z,94.30
2018-08-19T05:59:20.521Z,94.20
2018-08-19T06:02:45.370Z,94.10
2018-08-19T06:06:09.852Z,93.80
2018-08-19T06:09:35.400Z,93.70
2018-08-19T06:12:59.875Z,93.60
2018-08-19T06:16:24.328Z,93.50
2018-08-19T06:19:48.793Z,93.20
2018-08-19T06:23:13.214Z,92.60
2018-08-19T06:26:37.705Z,91.90
2018-08-19T06:30:02.113Z,91.20
2018-08-19T06:33:26.547Z,90.70
2018-08-19T06:36:51.005Z,90.40
2018-08-19T06:40:17.538Z,90.00
2018-08-19T06:43:41.980Z,88.60
2018-08-19T06:47:06.500Z,87.70
2018-08-19T06:50:33.700Z,85.90
2018-08-19T06:53:58.127Z,85.10
2018-08-19T06:57:22.621Z,85.20
2018-08-19T07:00:47.052Z,83.40
2018-08-19T07:04:11.487Z,82.90
2018-08-19T07:07:35.920Z,81.70
2018-08-19T07:11:00.352Z,81.40
2018-08-19T07:14:25.319Z,81.70
2018-08-19T07:17:49.791Z,80.20
2018-08-19T07:21:14.237Z,79.50
2018-08-19T07:24:39.652Z,78.90
2018-08-19T07:28:04.089Z,79.00
2018-08-19T07:31:28.596Z,77.90
2018-08-19T07:34:52.999Z,78.20
2018-08-19T07:38:17.514Z,77.50
2018-08-19T07:41:41.962Z,78.10
2018-08-19T07:45:06.452Z,78.20
2018-08-19T07:48:30.880Z,78.20
2018-08-19T07:51:55.339Z,78.20
2018-08-19T07:55:19.737Z,76.70
2018-08-19T07:58:46.600Z,76.80
2018-08-19T08:02:11.125Z,76.50
2018-08-19T08:05:40.653Z,77.00
2018-08-19T08:09:07.540Z,75.70
2018-08-19T08:12:31.980Z,74.60
2018-08-19T08:15:57.559Z,74.20
2018-08-19T08:19:22.398Z,75.20
2018-08-19T08:22:46.853Z,74.20
2018-08-19T08:26:11.359Z,74.50
2018-08-19T08:29:35.817Z,73.60
2018-08-19T08:33:00.247Z,72.70
2018-08-19T08:36:24.680Z,71.70
2018-08-19T08:40:00.673Z,70.30
2018-08-19T08:43:25.084Z,70.20
2018-08-19T08:46:49.527Z,71.20
2018-08-19T08:50:13.956Z,70.10
2018-08-19T08:53:42.489Z,69.60
2018-08-19T08:57:06.961Z,68.70
2018-08-19T09:00:31.441Z,66.90
2018-08-19T09:03:55.868Z,66.90
2018-08-19T09:07:20.535Z,67.10
2018-08-19T09:10:45.060Z,67.20
2018-08-19T09:14:09.490Z,67.00
2018-08-19T09:17:33.927Z,66.40
2018-08-19T09:20:58.393Z,65.90
2018-08-19T09:24:22.826Z,66.30
2018-08-19T09:27:47.256Z,66.70
2018-08-19T09:31:11.760Z,67.10
2018-08-19T09:34:36.184Z,65.70
2018-08-19T09:38:05.763Z,65.00
2018-08-19T09:41:30.199Z,64.60
2018-08-19T09:44:54.603Z,65.00
2018-08-19T09:48:19.181Z,64.20
2018-08-19T09:51:43.623Z,63.30
2018-08-19T09:55:10.012Z,63.80
2018-08-19T09:58:34.416Z,63.20
2018-08-19T10:01:58.852Z,63.10
2018-08-19T10:05:25.593Z,62.50
2018-08-19T10:08:50.039Z,61.90
2018-08-19T10:12:16.031Z,62.40
2018-08-19T10:15:40.464Z,62.00
2018-08-19T10:19:04.945Z,61.70
2018-08-19T10:22:33.411Z,60.10
2018-08-19T10:25:57.836Z,58.70
2018-08-19T10:29:22.269Z,58.60
2018-08-19T10:32:50.541Z,58.10
2018-08-19T10:36:14.971Z,58.30
2018-08-19T10:39:39.400Z,57.50
2018-08-19T10:43:07.901Z,53.60
2018-08-19T10:46:32.313Z,51.40
2018-08-19T10:50:05.672Z,50.50
2018-08-19T10:53:30.162Z,51.70
2018-08-19T10:56:55.835Z,51.40
2018-08-19T11:00:27.457Z,50.90
2018-08-19T11:03:51.896Z,50.90
2018-08-19T11:07:16.337Z,50.70
2018-08-19T11:10:40.782Z,49.90
2018-08-19T11:14:10.129Z,48.40
2018-08-19T11:17:34.523Z,48.30
2018-08-19T11:21:06.006Z,45.70
2018-08-19T11:24:30.423Z,45.60
2018-08-19T11:27:55.536Z,45.00
2018-08-19T11:31:27.213Z,45.00
2018-08-19T11:34:51.630Z,43.10
2018-08-19T11:38:16.050Z,43.40
2018-08-19T11:41:40.504Z,45.20
2018-08-19T11:45:05.020Z,42.70
2018-08-19T11:48:29.457Z,44.30
2018-08-19T11:52:04.647Z,42.60
2018-08-19T11:55:29.239Z,44.00
2018-08-19T11:58:53.669Z,44.20
2018-08-19T12:02:20.939Z,44.40
2018-08-19T12:05:45.321Z,41.80
2018-08-19T12:09:10.994Z,42.70
2018-08-19T12:12:49.156Z,41.10
2018-08-19T12:16:13.619Z,43.00
2018-08-19T12:19:43.843Z,41.10
2018-08-19T12:23:10.035Z,39.10
2018-08-19T12:26:38.525Z,38.50
2018-08-19T12:30:11.850Z,38.10
2018-08-19T12:33:36.303Z,36.70
2018-08-19T12:37:00.793Z,37.30
2018-08-19T12:40:25.282Z,36.70
2018-08-19T12:43:53.835Z,38.10
2018-08-19T12:47:23.266Z,38.70
2018-08-19T12:50:53.514Z,37.80
2018-08-19T12:54:17.938Z,36.70
2018-08-19T12:57:43.194Z,36.90
2018-08-19T13:01:07.594Z,36.00
2018-08-19T13:04:32.050Z,36.80
2018-08-19T13:07:56.522Z,35.10
2018-08-19T13:11:21.721Z,34.80
2018-08-19T13:14:46.810Z,33.50
2018-08-19T13:18:11.952Z,32.40
2018-08-19T13:21:36.453Z,30.80
2018-08-19T13:25:00.942Z,30.40
2018-08-19T13:28:25.416Z,30.30
2018-08-19T13:31:49.913Z,30.40
2018-08-19T13:35:14.367Z,31.20
2018-08-19T13:38:40.169Z,31.80
2018-08-19T13:42:04.642Z,31.80
2018-08-19T13:45:29.108Z,30.10
2018-08-19T13:48:53.876Z,29.10
2018-08-19T13:52:18.480Z,29.30
2018-08-19T13:55:42.935Z,29.50
2018-08-19T13:59:07.398Z,29.40
2018-08-19T14:02:31.823Z,27.90
2018-08-19T14:05:56.242Z,28.20
2018-08-19T14:09:20.689Z,29.50
2018-08-19T14:12:45.195Z,28.80
2018-08-19T14:16:09.659Z,29.30
2018-08-19T14:19:34.090Z,28.10
2018-08-19T14:22:58.538Z,26.90
2018-08-19T14:26:22.994Z,26.70
2018-08-19T14:29:47.393Z,27.20
2018-08-19T14:33:11.921Z,26.90
2018-08-19T14:36:36.379Z,26.90
2018-08-19T14:40:01.687Z,26.70
2018-08-19T14:43:26.029Z,26.50
2018-08-19T14:46:52.752Z,26.50
2018-08-19T14:50:19.491Z,26.50
2018-08-19T14:53:43.939Z,25.90
2018-08-19T14:57:08.411Z,25.10
2018-08-19T15:00:32.868Z,24.10
2018-08-19T15:03:58.210Z,24.10
2018-08-19T15:07:22.639Z,24.10
2018-08-19T15:10:51.184Z,23.70
2018-08-19T15:14:17.077Z,24.60
2018-08-19T15:17:46.433Z,24.40
2018-08-19T15:21:10.868Z,24.50
2018-08-19T15:24:35.301Z,24.40
2018-08-19T15:27:59.689Z,23.90
2018-08-19T15:31:28.128Z,23.80
2018-08-19T15:34:52.690Z,23.50
2018-08-19T15:38:17.124Z,23.40
2018-08-19T15:41:41.607Z,23.30
2018-08-19T15:45:06.035Z,23.90
2018-08-19T15:48:30.552Z,25.00
2018-08-19T15:51:55.045Z,24.50
2018-08-19T15:55:19.589Z,24.60
2018-08-19T15:58:44.168Z,24.90
2018-08-19T16:02:08.548Z,24.60
2018-08-19T16:05:33.038Z,24.10
2018-08-19T16:08:57.509Z,24.20
2018-08-19T16:12:22.073Z,24.40
2018-08-19T16:15:46.433Z,24.90
2018-08-19T16:19:10.854Z,24.70
2018-08-19T16:22:35.285Z,26.00
2018-08-19T16:25:59.752Z,28.80
2018-08-19T16:29:24.226Z,31.00
2018-08-19T16:32:48.640Z,33.40
2018-08-19T16:36:13.107Z,35.10
2018-08-19T16:39:37.546Z,35.80
2018-08-19T16:43:01.954Z,37.30
2018-08-19T16:46:26.412Z,38.50
2018-08-19T16:49:50.848Z,39.40
2018-08-19T16:53:15.293Z,39.60
2018-08-19T16:56:39.699Z,40.70
2018-08-19T17:00:04.424Z,41.10
2018-08-19T17:03:37.596Z,42.20
2018-08-19T17:07:02.044Z,41.90
2018-08-19T17:10:27.808Z,41.30
2018-08-19T17:13:52.272Z,41.30
2018-08-19T17:17:16.676Z,43.50
2018-08-19T17:20:41.513Z,44.70
2018-08-19T17:24:05.974Z,46.10
2018-08-19T17:27:30.392Z,47.30
2018-08-19T17:30:55.489Z,47.70
2018-08-19T17:34:20.480Z,48.50
2018-08-19T17:37:44.972Z,49.00
2018-08-19T17:41:09.456Z,49.70
2018-08-19T17:44:33.906Z,50.90
2018-08-19T17:47:58.479Z,51.30
2018-08-19T17:51:33.276Z,51.70
2018-08-19T17:54:57.680Z,51.90
2018-08-19T17:58:22.096Z,52.20
2018-08-19T18:01:46.501Z,52.90
2018-08-19T18:05:10.977Z,54.60
2018-08-19T18:08:35.377Z,54.40
2018-08-19T18:12:04.117Z,55.70
2018-08-19T18:15:28.551Z,55.00
2018-08-19T18:18:53.006Z,56.00
2018-08-19T18:22:20.867Z,55.60
2018-08-19T18:25:50.182Z,56.20
2018-08-19T18:29:17.158Z,57.00
2018-08-19T18:32:41.720Z,58.10
2018-08-19T18:36:07.135Z,57.70
2018-08-19T18:39:31.546Z,57.80
2018-08-19T18:42:55.984Z,58.30
2018-08-19T18:46:20.939Z,60.30
2018-08-19T18:49:45.432Z,60.30
2018-08-19T18:53:11.186Z,60.70
2018-08-19T18:56:35.632Z,63.70
2018-08-19T19:00:00.051Z,65.10
2018-08-19T19:03:24.487Z,64.50
2018-08-19T19:06:49.001Z,65.00
2018-08-19T19:10:13.495Z,66.10
2018-08-19T19:13:37.983Z,65.00
2018-08-19T19:17:02.483Z,67.30
2018-08-19T19:20:26.853Z,66.90
2018-08-19T19:23:51.239Z,65.60
2018-08-19T19:27:15.732Z,68.80
2018-08-19T19:30:40.217Z,69.60
2018-08-19T19:34:09.822Z,67.70
2018-08-19T19:37:34.608Z,70.00
2018-08-19T19:41:05.024Z,69.70
2018-08-19T19:44:33.607Z,69.10
2018-08-19T19:47:58.135Z,69.00
2018-08-19T19:51:22.562Z,69.10
2018-08-19T19:54:47.026Z,68.20
2018-08-19T19:58:11.532Z,68.60
2018-08-19T20:01:36.176Z,68.60
2018-08-19T20:05:01.379Z,68.60
2018-08-19T20:08:26.972Z,69.70
2018-08-19T20:11:51.380Z,71.40
2018-08-19T20:15:15.792Z,71.00
2018-08-19T20:18:40.539Z,71.80
2018-08-19T20:22:04.973Z,71.50
2018-08-19T20:25:29.526Z,72.80
2018-08-19T20:28:55.468Z,72.60
2018-08-19T20:32:20.918Z,72.70
2018-08-19T20:35:45.907Z,72.90
2018-08-19T20:39:10.331Z,73.70
2018-08-19T20:42:34.789Z,74.20
2018-08-19T20:45:59.347Z,74.50
2018-08-19T20:49:24.112Z,75.40
2018-08-19T20:52:49.408Z,77.20
2018-08-19T20:56:13.872Z,77.40
2018-08-19T20:59:38.873Z,78.40
2018-08-19T21:03:03.475Z,78.80
2018-08-19T21:06:27.876Z,79.70
2018-08-19T21:09:52.343Z,80.00
2018-08-19T21:13:18.429Z,80.90
2018-08-19T21:16:42.892Z,80.50
2018-08-19T21:20:07.350Z,80.50
2018-08-19T21:23:31.900Z,80.80
2018-08-19T21:27:00.692Z,81.00
2018-08-19T21:30:25.328Z,80.30
2018-08-19T21:33:49.728Z,80.00
2018-08-19T21:37:21.360Z,81.00
2018-08-19T21:40:45.800Z,81.10
2018-08-19T21:44:10.292Z,81.00
2018-08-19T21:47:34.723Z,80.70
2018-08-19T21:50:59.275Z,81.00
2018-08-19T21:54:23.767Z,81.20
2018-08-19T21:57:48.248Z,80.00
2018-08-19T22:01:17.900Z,80.80
2018-08-19T22:04:42.372Z,78.80
2018-08-19T22:08:06.993Z,77.90
2018-08-19T22:11:31.441Z,77.40
2018-08-19T22:14:56.141Z,77.30
2018-08-19T22:18:22.212Z,77.00
2018-08-19T22:21:46.800Z,76.60
2018-08-19T22:25:11.801Z,76.60
2018-08-19T22:28:36.624Z,76.70
2018-08-19T22:32:01.223Z,77.30
2018-08-19T22:35:25.834Z,76.50
2018-08-19T22:38:51.230Z,76.20
2018-08-19T22:42:16.040Z,76.00
2018-08-19T22:45:40.593Z,76.20
2018-08-19T22:49:05.544Z,76.50
2018-08-19T22:52:30.090Z,76.40
2018-08-19T22:55:55.000Z,76.80
2018-08-19T22:59:19.442Z,76.80
2018-08-19T23:02:44.002Z,77.30
2018-08-19T23:06:08.650Z,76.80
2018-08-19T23:09:33.223Z,76.60
2018-08-19T23:12:58.674Z,77.10
2018-08-19T23:16:23.212Z,77.40
2018-08-19T23:19:51.767Z,79.40
2018-08-19T23:23:16.193Z,78.80
2018-08-19T23:26:40.632Z,78.50
2018-08-19T23:30:05.544Z,79.10
2018-08-19T23:33:30.108Z,78.80
2018-08-19T23:36:54.620Z,79.60
2018-08-19T23:40:19.167Z,80.60
2018-08-19T23:43:43.578Z,80.70
2018-08-19T23:47:08.002Z,81.80
2018-08-19T23:50:32.425Z,82.40
2018-08-19T23:53:56.855Z,82.30
2018-08-19T23:57:21.334Z,82.80
